Terminal Aerodrome Forecast
Issued by NWS Cleveland, OH

Home | Current Version | Previous Version | Text Only | Print | Product List | Glossary On
Versions: 1 2 3 4 5 6 7 8 9 10 11 12 13 14 15 16 17
000
FTUS41 KCLE 311000 AAA
TAFMFD
TAF AMD
KMFD 311019Z 3110/0106 21010KT 5SM BR SCT010 BKN050
     FM311330 21010KT 6SM -SHRA VCTS SCT006CB OVC012
      TEMPO 3114/3117 4SM SHRA BR OVC006
     FM311800 21010KT P6SM VCSH SCT008 OVC015
     FM312300 20008KT P6SM OVC015=

USA.gov is the U.S. government's official web portal to all federal, state and local government web resources and services.